sensor_id;sensor_type;location;lat;lon;timestamp;P1;durP1;ratioP1;P2;durP2;ratioP2
60169;SDS011;46042;49.444;6.862;2023-02-28T00:00:50;0.87;;;0.80;;
60169;SDS011;46042;49.444;6.862;2023-02-28T00:03:17;0.60;;;0.53;;
60169;SDS011;46042;49.444;6.862;2023-02-28T00:05:44;1.00;;;0.57;;
60169;SDS011;46042;49.444;6.862;2023-02-28T00:08:10;1.20;;;0.87;;
60169;SDS011;46042;49.444;6.862;2023-02-28T00:10:38;0.60;;;0.60;;
60169;SDS011;46042;49.444;6.862;2023-02-28T00:13:05;0.60;;;0.60;;
60169;SDS011;46042;49.444;6.862;2023-02-28T00:15:33;0.90;;;0.63;;
60169;SDS011;46042;49.444;6.862;2023-02-28T00:17:59;3.60;;;0.70;;
60169;SDS011;46042;49.444;6.862;2023-02-28T00:20:27;0.80;;;0.70;;
60169;SDS011;46042;49.444;6.862;2023-02-28T00:22:54;1.10;;;0.80;;
60169;SDS011;46042;49.444;6.862;2023-02-28T00:25:22;1.17;;;0.83;;
60169;SDS011;46042;49.444;6.862;2023-02-28T00:27:51;3.90;;;0.90;;
60169;SDS011;46042;49.444;6.862;2023-02-28T00:30:18;0.70;;;0.60;;
60169;SDS011;46042;49.444;6.862;2023-02-28T00:32:49;0.60;;;0.60;;
60169;SDS011;46042;49.444;6.862;2023-02-28T00:35:16;0.60;;;0.60;;
60169;SDS011;46042;49.444;6.862;2023-02-28T00:37:43;0.70;;;0.70;;
60169;SDS011;46042;49.444;6.862;2023-02-28T00:40:10;1.07;;;0.80;;
60169;SDS011;46042;49.444;6.862;2023-02-28T00:42:38;1.60;;;0.80;;
60169;SDS011;46042;49.444;6.862;2023-02-28T00:45:06;2.30;;;0.80;;
60169;SDS011;46042;49.444;6.862;2023-02-28T00:47:34;1.13;;;0.63;;
60169;SDS011;46042;49.444;6.862;2023-02-28T00:50:02;1.33;;;0.90;;
60169;SDS011;46042;49.444;6.862;2023-02-28T00:52:29;1.73;;;1.00;;
60169;SDS011;46042;49.444;6.862;2023-02-28T00:54:56;2.03;;;1.00;;
60169;SDS011;46042;49.444;6.862;2023-02-28T00:57:22;0.70;;;0.70;;
60169;SDS011;46042;49.444;6.862;2023-02-28T00:59:49;1.07;;;0.70;;
60169;SDS011;46042;49.444;6.862;2023-02-28T01:02:16;1.00;;;0.80;;
60169;SDS011;46042;49.444;6.862;2023-02-28T01:04:44;1.03;;;0.80;;
60169;SDS011;46042;49.444;6.862;2023-02-28T01:07:11;0.90;;;0.90;;
60169;SDS011;46042;49.444;6.862;2023-02-28T01:09:37;0.63;;;0.63;;
60169;SDS011;46042;49.444;6.862;2023-02-28T01:12:04;3.47;;;0.90;;
60169;SDS011;46042;49.444;6.862;2023-02-28T01:14:31;1.17;;;1.00;;
60169;SDS011;46042;49.444;6.862;2023-02-28T01:16:57;1.00;;;0.80;;
60169;SDS011;46042;49.444;6.862;2023-02-28T01:19:24;2.07;;;1.10;;
60169;SDS011;46042;49.444;6.862;2023-02-28T01:21:50;1.03;;;0.93;;
60169;SDS011;46042;49.444;6.862;2023-02-28T01:24:17;3.20;;;1.20;;
60169;SDS011;46042;49.444;6.862;2023-02-28T01:26:44;1.03;;;0.93;;
60169;SDS011;46042;49.444;6.862;2023-02-28T01:29:11;1.20;;;1.00;;
60169;SDS011;46042;49.444;6.862;2023-02-28T01:31:38;1.10;;;1.00;;
60169;SDS011;46042;49.444;6.862;2023-02-28T01:34:05;1.40;;;1.10;;
60169;SDS011;46042;49.444;6.862;2023-02-28T01:36:31;0.93;;;0.80;;
60169;SDS011;46042;49.444;6.862;2023-02-28T01:38:58;1.20;;;0.93;;
60169;SDS011;46042;49.444;6.862;2023-02-28T01:41:30;1.90;;;0.90;;
60169;SDS011;46042;49.444;6.862;2023-02-28T01:46:33;1.50;;;1.00;;
60169;SDS011;46042;49.444;6.862;2023-02-28T01:49:03;1.10;;;1.00;;
60169;SDS011;46042;49.444;6.862;2023-02-28T01:54:02;1.03;;;0.70;;
60169;SDS011;46042;49.444;6.862;2023-02-28T01:56:42;3.43;;;1.03;;
60169;SDS011;46042;49.444;6.862;2023-02-28T01:59:14;2.40;;;0.97;;
60169;SDS011;46042;49.444;6.862;2023-02-28T02:01:48;1.40;;;1.17;;
60169;SDS011;46042;49.444;6.862;2023-02-28T02:04:15;1.27;;;0.93;;
60169;SDS011;46042;49.444;6.862;2023-02-28T02:06:43;2.80;;;1.10;;
60169;SDS011;46042;49.444;6.862;2023-02-28T02:09:12;4.03;;;1.37;;
60169;SDS011;46042;49.444;6.862;2023-02-28T02:11:42;1.00;;;0.80;;
60169;SDS011;46042;49.444;6.862;2023-02-28T02:14:14;1.90;;;0.93;;
60169;SDS011;46042;49.444;6.862;2023-02-28T02:19:53;1.43;;;0.97;;
60169;SDS011;46042;49.444;6.862;2023-02-28T02:36:09;1.00;;;0.87;;
60169;SDS011;46042;49.444;6.862;2023-02-28T02:38:53;1.23;;;1.07;;
60169;SDS011;46042;49.444;6.862;2023-02-28T02:41:52;1.67;;;1.03;;
60169;SDS011;46042;49.444;6.862;2023-02-28T02:46:58;2.77;;;1.40;;
60169;SDS011;46042;49.444;6.862;2023-02-28T02:49:33;2.30;;;1.27;;
60169;SDS011;46042;49.444;6.862;2023-02-28T02:52:02;2.10;;;1.10;;
60169;SDS011;46042;49.444;6.862;2023-02-28T02:57:05;1.02;;;0.95;;
60169;SDS011;46042;49.444;6.862;2023-02-28T02:59:37;2.10;;;1.10;;
60169;SDS011;46042;49.444;6.862;2023-02-28T03:02:07;1.55;;;1.20;;
60169;SDS011;46042;49.444;6.862;2023-02-28T03:04:39;1.87;;;1.10;;
60169;SDS011;46042;49.444;6.862;2023-02-28T03:07:11;3.13;;;1.17;;
60169;SDS011;46042;49.444;6.862;2023-02-28T03:09:37;1.30;;;1.20;;
60169;SDS011;46042;49.444;6.862;2023-02-28T03:12:04;1.73;;;1.37;;
60169;SDS011;46042;49.444;6.862;2023-02-28T03:25:29;1.50;;;1.10;;
60169;SDS011;46042;49.444;6.862;2023-02-28T03:31:03;2.97;;;1.23;;
60169;SDS011;46042;49.444;6.862;2023-02-28T03:33:39;1.63;;;1.13;;
60169;SDS011;46042;49.444;6.862;2023-02-28T03:36:15;2.07;;;1.43;;
60169;SDS011;46042;49.444;6.862;2023-02-28T03:41:22;2.93;;;1.10;;
60169;SDS011;46042;49.444;6.862;2023-02-28T03:43:57;1.33;;;1.10;;
60169;SDS011;46042;49.444;6.862;2023-02-28T03:46:28;1.83;;;1.20;;
60169;SDS011;46042;49.444;6.862;2023-02-28T03:49:04;7.95;;;1.67;;
60169;SDS011;46042;49.444;6.862;2023-02-28T03:51:43;2.20;;;1.70;;
60169;SDS011;46042;49.444;6.862;2023-02-28T03:54:13;2.83;;;1.60;;
60169;SDS011;46042;49.444;6.862;2023-02-28T03:59:21;2.27;;;1.40;;
60169;SDS011;46042;49.444;6.862;2023-02-28T04:01:52;1.73;;;1.10;;
60169;SDS011;46042;49.444;6.862;2023-02-28T04:04:19;1.10;;;1.00;;
60169;SDS011;46042;49.444;6.862;2023-02-28T04:06:45;1.53;;;1.17;;
60169;SDS011;46042;49.444;6.862;2023-02-28T04:11:44;1.43;;;1.10;;
60169;SDS011;46042;49.444;6.862;2023-02-28T04:14:14;1.70;;;1.10;;
60169;SDS011;46042;49.444;6.862;2023-02-28T04:16:41;2.30;;;1.10;;
60169;SDS011;46042;49.444;6.862;2023-02-28T04:19:09;10.83;;;1.63;;
60169;SDS011;46042;49.444;6.862;2023-02-28T04:21:44;1.77;;;1.50;;
60169;SDS011;46042;49.444;6.862;2023-02-28T04:24:18;1.17;;;1.07;;
60169;SDS011;46042;49.444;6.862;2023-02-28T04:26:47;1.60;;;1.50;;
60169;SDS011;46042;49.444;6.862;2023-02-28T04:29:20;2.00;;;1.37;;
60169;SDS011;46042;49.444;6.862;2023-02-28T04:31:48;2.70;;;1.90;;
60169;SDS011;46042;49.444;6.862;2023-02-28T04:34:15;2.37;;;1.83;;
60169;SDS011;46042;49.444;6.862;2023-02-28T04:36:42;2.83;;;1.83;;
60169;SDS011;46042;49.444;6.862;2023-02-28T04:39:09;2.70;;;1.40;;
60169;SDS011;46042;49.444;6.862;2023-02-28T04:41:36;2.10;;;1.70;;
60169;SDS011;46042;49.444;6.862;2023-02-28T04:44:02;4.83;;;2.20;;
60169;SDS011;46042;49.444;6.862;2023-02-28T04:46:29;2.27;;;1.90;;
60169;SDS011;46042;49.444;6.862;2023-02-28T04:48:56;2.97;;;1.80;;
60169;SDS011;46042;49.444;6.862;2023-02-28T04:51:24;6.07;;;1.83;;
60169;SDS011;46042;49.444;6.862;2023-02-28T04:53:50;1.73;;;1.40;;
60169;SDS011;46042;49.444;6.862;2023-02-28T04:56:18;4.00;;;1.70;;
60169;SDS011;46042;49.444;6.862;2023-02-28T04:58:45;2.23;;;1.50;;
60169;SDS011;46042;49.444;6.862;2023-02-28T05:03:42;8.97;;;2.13;;
60169;SDS011;46042;49.444;6.862;2023-02-28T05:06:10;2.33;;;1.73;;
60169;SDS011;46042;49.444;6.862;2023-02-28T05:08:38;4.03;;;2.07;;
60169;SDS011;46042;49.444;6.862;2023-02-28T05:11:15;2.40;;;1.53;;
60169;SDS011;46042;49.444;6.862;2023-02-28T05:13:44;2.47;;;1.80;;
60169;SDS011;46042;49.444;6.862;2023-02-28T05:16:11;2.00;;;1.50;;
60169;SDS011;46042;49.444;6.862;2023-02-28T05:18:38;2.70;;;1.83;;
60169;SDS011;46042;49.444;6.862;2023-02-28T05:21:05;2.33;;;1.73;;
60169;SDS011;46042;49.444;6.862;2023-02-28T05:23:32;3.27;;;1.70;;
60169;SDS011;46042;49.444;6.862;2023-02-28T05:25:59;2.53;;;1.70;;
60169;SDS011;46042;49.444;6.862;2023-02-28T05:28:25;8.00;;;2.47;;
60169;SDS011;46042;49.444;6.862;2023-02-28T05:30:52;2.10;;;1.40;;
60169;SDS011;46042;49.444;6.862;2023-02-28T05:33:18;2.87;;;1.70;;
60169;SDS011;46042;49.444;6.862;2023-02-28T05:35:45;2.97;;;1.90;;
60169;SDS011;46042;49.444;6.862;2023-02-28T05:38:12;2.03;;;1.30;;
60169;SDS011;46042;49.444;6.862;2023-02-28T05:40:38;2.47;;;1.60;;
60169;SDS011;46042;49.444;6.862;2023-02-28T05:43:07;3.63;;;1.90;;
60169;SDS011;46042;49.444;6.862;2023-02-28T05:45:36;4.40;;;2.55;;
60169;SDS011;46042;49.444;6.862;2023-02-28T05:48:03;2.13;;;1.93;;
60169;SDS011;46042;49.444;6.862;2023-02-28T05:50:30;6.97;;;2.27;;
60169;SDS011;46042;49.444;6.862;2023-02-28T05:52:57;3.17;;;2.07;;
60169;SDS011;46042;49.444;6.862;2023-02-28T05:55:23;3.00;;;2.40;;
60169;SDS011;46042;49.444;6.862;2023-02-28T05:57:50;2.30;;;1.50;;
60169;SDS011;46042;49.444;6.862;2023-02-28T06:00:16;1.97;;;1.63;;
60169;SDS011;46042;49.444;6.862;2023-02-28T06:02:44;2.77;;;1.73;;
60169;SDS011;46042;49.444;6.862;2023-02-28T06:05:13;1.87;;;1.67;;
60169;SDS011;46042;49.444;6.862;2023-02-28T06:07:41;2.17;;;1.42;;
60169;SDS011;46042;49.444;6.862;2023-02-28T06:10:08;1.83;;;1.60;;
60169;SDS011;46042;49.444;6.862;2023-02-28T06:12:37;4.57;;;2.30;;
60169;SDS011;46042;49.444;6.862;2023-02-28T06:15:04;3.07;;;1.70;;
60169;SDS011;46042;49.444;6.862;2023-02-28T06:17:31;3.27;;;1.50;;
60169;SDS011;46042;49.444;6.862;2023-02-28T06:19:58;2.33;;;1.80;;
60169;SDS011;46042;49.444;6.862;2023-02-28T06:22:24;5.57;;;2.10;;
60169;SDS011;46042;49.444;6.862;2023-02-28T06:24:51;1.83;;;1.63;;
60169;SDS011;46042;49.444;6.862;2023-02-28T06:27:18;2.97;;;1.77;;
60169;SDS011;46042;49.444;6.862;2023-02-28T06:29:46;1.60;;;1.33;;
60169;SDS011;46042;49.444;6.862;2023-02-28T06:32:13;3.03;;;1.90;;
60169;SDS011;46042;49.444;6.862;2023-02-28T06:34:39;2.40;;;2.00;;
60169;SDS011;46042;49.444;6.862;2023-02-28T06:37:06;3.03;;;1.47;;
60169;SDS011;46042;49.444;6.862;2023-02-28T06:39:33;4.57;;;1.90;;
60169;SDS011;46042;49.444;6.862;2023-02-28T06:42:00;1.70;;;1.27;;
60169;SDS011;46042;49.444;6.862;2023-02-28T06:44:26;3.80;;;2.40;;
60169;SDS011;46042;49.444;6.862;2023-02-28T06:46:53;2.30;;;1.70;;
60169;SDS011;46042;49.444;6.862;2023-02-28T06:49:20;2.57;;;1.63;;
60169;SDS011;46042;49.444;6.862;2023-02-28T06:51:46;2.33;;;1.80;;
60169;SDS011;46042;49.444;6.862;2023-02-28T06:54:13;2.03;;;1.50;;
60169;SDS011;46042;49.444;6.862;2023-02-28T06:56:39;4.93;;;1.90;;
60169;SDS011;46042;49.444;6.862;2023-02-28T06:59:06;1.73;;;1.40;;
60169;SDS011;46042;49.444;6.862;2023-02-28T07:01:33;5.17;;;2.77;;
60169;SDS011;46042;49.444;6.862;2023-02-28T07:04:00;4.07;;;1.80;;
60169;SDS011;46042;49.444;6.862;2023-02-28T07:06:27;2.50;;;1.70;;
60169;SDS011;46042;49.444;6.862;2023-02-28T07:08:54;2.80;;;1.83;;
60169;SDS011;46042;49.444;6.862;2023-02-28T07:11:21;3.33;;;1.83;;
60169;SDS011;46042;49.444;6.862;2023-02-28T07:13:49;1.73;;;1.33;;
60169;SDS011;46042;49.444;6.862;2023-02-28T07:16:17;2.27;;;1.77;;
60169;SDS011;46042;49.444;6.862;2023-02-28T07:18:44;8.80;;;1.80;;
60169;SDS011;46042;49.444;6.862;2023-02-28T07:21:10;3.17;;;1.70;;
60169;SDS011;46042;49.444;6.862;2023-02-28T07:23:38;3.20;;;2.10;;
60169;SDS011;46042;49.444;6.862;2023-02-28T07:26:05;3.30;;;1.80;;
60169;SDS011;46042;49.444;6.862;2023-02-28T07:28:33;2.27;;;1.70;;
60169;SDS011;46042;49.444;6.862;2023-02-28T07:31:03;2.10;;;1.60;;
60169;SDS011;46042;49.444;6.862;2023-02-28T07:33:31;5.23;;;1.87;;
60169;SDS011;46042;49.444;6.862;2023-02-28T07:36:05;2.77;;;1.43;;
60169;SDS011;46042;49.444;6.862;2023-02-28T07:38:34;2.60;;;1.90;;
60169;SDS011;46042;49.444;6.862;2023-02-28T07:41:03;3.40;;;1.50;;
60169;SDS011;46042;49.444;6.862;2023-02-28T07:43:32;2.40;;;1.60;;
60169;SDS011;46042;49.444;6.862;2023-02-28T07:46:03;5.43;;;1.97;;
60169;SDS011;46042;49.444;6.862;2023-02-28T07:48:34;3.47;;;1.60;;
60169;SDS011;46042;49.444;6.862;2023-02-28T07:51:01;2.47;;;1.58;;
60169;SDS011;46042;49.444;6.862;2023-02-28T07:53:29;1.67;;;1.58;;
60169;SDS011;46042;49.444;6.862;2023-02-28T07:55:59;3.50;;;2.15;;
60169;SDS011;46042;49.444;6.862;2023-02-28T07:58:28;3.58;;;2.35;;
60169;SDS011;46042;49.444;6.862;2023-02-28T08:00:56;2.83;;;2.17;;
60169;SDS011;46042;49.444;6.862;2023-02-28T08:03:23;3.08;;;2.40;;
60169;SDS011;46042;49.444;6.862;2023-02-28T08:05:50;3.05;;;2.13;;
60169;SDS011;46042;49.444;6.862;2023-02-28T08:08:18;5.22;;;2.28;;
60169;SDS011;46042;49.444;6.862;2023-02-28T08:10:45;3.80;;;2.47;;
60169;SDS011;46042;49.444;6.862;2023-02-28T08:13:12;3.60;;;2.40;;
60169;SDS011;46042;49.444;6.862;2023-02-28T08:15:40;4.50;;;2.50;;
60169;SDS011;46042;49.444;6.862;2023-02-28T08:18:08;3.35;;;2.38;;
60169;SDS011;46042;49.444;6.862;2023-02-28T08:20:36;3.55;;;2.67;;
60169;SDS011;46042;49.444;6.862;2023-02-28T08:23:02;6.05;;;2.47;;
60169;SDS011;46042;49.444;6.862;2023-02-28T08:25:29;7.65;;;2.10;;
60169;SDS011;46042;49.444;6.862;2023-02-28T08:27:55;4.35;;;2.17;;
60169;SDS011;46042;49.444;6.862;2023-02-28T08:30:22;3.00;;;2.28;;
60169;SDS011;46042;49.444;6.862;2023-02-28T08:32:49;5.18;;;2.28;;
60169;SDS011;46042;49.444;6.862;2023-02-28T08:35:15;6.93;;;2.35;;
60169;SDS011;46042;49.444;6.862;2023-02-28T08:37:42;6.55;;;2.20;;
60169;SDS011;46042;49.444;6.862;2023-02-28T08:40:10;8.18;;;2.50;;
60169;SDS011;46042;49.444;6.862;2023-02-28T08:42:39;4.53;;;2.60;;
60169;SDS011;46042;49.444;6.862;2023-02-28T08:45:06;3.75;;;2.30;;
60169;SDS011;46042;49.444;6.862;2023-02-28T08:47:33;3.97;;;2.53;;
60169;SDS011;46042;49.444;6.862;2023-02-28T08:49:59;5.35;;;2.38;;
60169;SDS011;46042;49.444;6.862;2023-02-28T08:52:26;3.40;;;2.30;;
60169;SDS011;46042;49.444;6.862;2023-02-28T08:54:52;3.78;;;2.58;;
60169;SDS011;46042;49.444;6.862;2023-02-28T08:57:19;3.67;;;2.53;;
60169;SDS011;46042;49.444;6.862;2023-02-28T08:59:45;3.75;;;2.42;;
60169;SDS011;46042;49.444;6.862;2023-02-28T09:02:13;3.47;;;2.30;;
60169;SDS011;46042;49.444;6.862;2023-02-28T09:04:40;5.30;;;2.40;;
60169;SDS011;46042;49.444;6.862;2023-02-28T09:07:07;3.08;;;2.50;;
60169;SDS011;46042;49.444;6.862;2023-02-28T09:09:34;4.35;;;2.90;;
60169;SDS011;46042;49.444;6.862;2023-02-28T09:12:01;4.03;;;2.20;;
60169;SDS011;46042;49.444;6.862;2023-02-28T09:14:28;3.67;;;2.05;;
60169;SDS011;46042;49.444;6.862;2023-02-28T09:16:54;5.15;;;2.60;;
60169;SDS011;46042;49.444;6.862;2023-02-28T09:19:21;3.70;;;2.35;;
60169;SDS011;46042;49.444;6.862;2023-02-28T09:21:48;4.20;;;2.40;;
60169;SDS011;46042;49.444;6.862;2023-02-28T09:24:15;5.38;;;1.92;;
60169;SDS011;46042;49.444;6.862;2023-02-28T09:26:41;6.07;;;2.95;;
60169;SDS011;46042;49.444;6.862;2023-02-28T09:29:28;4.93;;;2.75;;
60169;SDS011;46042;49.444;6.862;2023-02-28T09:31:55;4.70;;;2.58;;
60169;SDS011;46042;49.444;6.862;2023-02-28T09:34:25;3.70;;;2.30;;
60169;SDS011;46042;49.444;6.862;2023-02-28T09:36:53;3.25;;;2.05;;
60169;SDS011;46042;49.444;6.862;2023-02-28T09:39:21;3.50;;;2.22;;
60169;SDS011;46042;49.444;6.862;2023-02-28T09:41:50;3.65;;;2.30;;
60169;SDS011;46042;49.444;6.862;2023-02-28T09:46:53;3.00;;;1.75;;
60169;SDS011;46042;49.444;6.862;2023-02-28T09:49:23;5.22;;;2.47;;
60169;SDS011;46042;49.444;6.862;2023-02-28T09:52:02;5.35;;;2.90;;
60169;SDS011;46042;49.444;6.862;2023-02-28T09:54:32;3.50;;;2.10;;
60169;SDS011;46042;49.444;6.862;2023-02-28T09:57:01;5.35;;;2.60;;
60169;SDS011;46042;49.444;6.862;2023-02-28T10:02:21;3.33;;;2.30;;
60169;SDS011;46042;49.444;6.862;2023-02-28T10:04:50;5.45;;;2.92;;
60169;SDS011;46042;49.444;6.862;2023-02-28T10:09:54;16.67;;;5.05;;
60169;SDS011;46042;49.444;6.862;2023-02-28T10:12:24;4.05;;;2.35;;
60169;SDS011;46042;49.444;6.862;2023-02-28T10:14:52;9.27;;;4.00;;
60169;SDS011;46042;49.444;6.862;2023-02-28T10:17:23;7.40;;;2.88;;
60169;SDS011;46042;49.444;6.862;2023-02-28T10:20:02;7.85;;;2.75;;
60169;SDS011;46042;49.444;6.862;2023-02-28T10:22:40;4.65;;;2.70;;
60169;SDS011;46042;49.444;6.862;2023-02-28T10:25:18;4.63;;;2.67;;
60169;SDS011;46042;49.444;6.862;2023-02-28T10:27:53;3.42;;;2.20;;
60169;SDS011;46042;49.444;6.862;2023-02-28T10:30:20;7.93;;;3.13;;
60169;SDS011;46042;49.444;6.862;2023-02-28T10:32:51;3.72;;;2.50;;
60169;SDS011;46042;49.444;6.862;2023-02-28T10:35:23;4.60;;;3.00;;
60169;SDS011;46042;49.444;6.862;2023-02-28T10:37:55;4.60;;;2.53;;
60169;SDS011;46042;49.444;6.862;2023-02-28T10:40:27;5.00;;;2.70;;
60169;SDS011;46042;49.444;6.862;2023-02-28T10:43:04;4.40;;;2.70;;
60169;SDS011;46042;49.444;6.862;2023-02-28T10:45:55;9.27;;;3.13;;
60169;SDS011;46042;49.444;6.862;2023-02-28T10:51:07;4.43;;;2.88;;
60169;SDS011;46042;49.444;6.862;2023-02-28T10:56:26;4.30;;;2.33;;
60169;SDS011;46042;49.444;6.862;2023-02-28T11:01:38;3.85;;;2.15;;
60169;SDS011;46042;49.444;6.862;2023-02-28T11:04:18;3.88;;;2.33;;
60169;SDS011;46042;49.444;6.862;2023-02-28T11:07:04;4.43;;;2.47;;
60169;SDS011;46042;49.444;6.862;2023-02-28T11:12:10;3.63;;;2.17;;
60169;SDS011;46042;49.444;6.862;2023-02-28T11:14:52;5.97;;;2.40;;
60169;SDS011;46042;49.444;6.862;2023-02-28T11:17:42;4.50;;;2.88;;
60169;SDS011;46042;49.444;6.862;2023-02-28T11:20:18;4.82;;;2.40;;
60169;SDS011;46042;49.444;6.862;2023-02-28T11:22:49;2.33;;;1.88;;
60169;SDS011;46042;49.444;6.862;2023-02-28T11:25:25;4.05;;;2.58;;
60169;SDS011;46042;49.444;6.862;2023-02-28T11:27:59;3.80;;;2.55;;
60169;SDS011;46042;49.444;6.862;2023-02-28T11:30:29;3.70;;;2.53;;
60169;SDS011;46042;49.444;6.862;2023-02-28T11:32:59;5.47;;;2.75;;
60169;SDS011;46042;49.444;6.862;2023-02-28T11:35:33;4.22;;;2.83;;
60169;SDS011;46042;49.444;6.862;2023-02-28T11:38:05;5.40;;;3.00;;
60169;SDS011;46042;49.444;6.862;2023-02-28T11:41:03;4.13;;;2.78;;
60169;SDS011;46042;49.444;6.862;2023-02-28T11:43:45;4.20;;;2.45;;
60169;SDS011;46042;49.444;6.862;2023-02-28T11:52:01;7.20;;;3.63;;
60169;SDS011;46042;49.444;6.862;2023-02-28T11:57:32;3.92;;;2.65;;
60169;SDS011;46042;49.444;6.862;2023-02-28T12:05:57;3.85;;;2.65;;
60169;SDS011;46042;49.444;6.862;2023-02-28T12:14:19;5.15;;;3.45;;
60169;SDS011;46042;49.444;6.862;2023-02-28T12:22:29;8.32;;;3.35;;
60169;SDS011;46042;49.444;6.862;2023-02-28T12:25:02;5.00;;;3.00;;
60169;SDS011;46042;49.444;6.862;2023-02-28T12:27:50;6.25;;;3.10;;
60169;SDS011;46042;49.444;6.862;2023-02-28T12:30:21;4.55;;;2.97;;
60169;SDS011;46042;49.444;6.862;2023-02-28T12:33:12;5.15;;;3.17;;
60169;SDS011;46042;49.444;6.862;2023-02-28T12:35:55;4.18;;;3.00;;
60169;SDS011;46042;49.444;6.862;2023-02-28T12:44:09;4.20;;;3.10;;
60169;SDS011;46042;49.444;6.862;2023-02-28T12:46:45;7.72;;;3.92;;
60169;SDS011;46042;49.444;6.862;2023-02-28T12:49:17;6.75;;;3.88;;
60169;SDS011;46042;49.444;6.862;2023-02-28T12:51:50;5.13;;;3.72;;
60169;SDS011;46042;49.444;6.862;2023-02-28T12:57:12;5.72;;;3.00;;
60169;SDS011;46042;49.444;6.862;2023-02-28T13:00:02;6.78;;;3.45;;
60169;SDS011;46042;49.444;6.862;2023-02-28T13:10:43;6.10;;;4.15;;
60169;SDS011;46042;49.444;6.862;2023-02-28T13:13:33;4.80;;;3.25;;
60169;SDS011;46042;49.444;6.862;2023-02-28T13:16:06;5.80;;;3.72;;
60169;SDS011;46042;49.444;6.862;2023-02-28T13:21:24;6.38;;;3.83;;
60169;SDS011;46042;49.444;6.862;2023-02-28T13:28:58;9.95;;;4.15;;
60169;SDS011;46042;49.444;6.862;2023-02-28T13:31:25;5.72;;;3.47;;
60169;SDS011;46042;49.444;6.862;2023-02-28T13:36:25;7.70;;;4.28;;
60169;SDS011;46042;49.444;6.862;2023-02-28T13:38:56;9.02;;;3.88;;
60169;SDS011;46042;49.444;6.862;2023-02-28T13:46:28;5.43;;;3.58;;
60169;SDS011;46042;49.444;6.862;2023-02-28T13:48:55;6.03;;;3.85;;
60169;SDS011;46042;49.444;6.862;2023-02-28T13:51:34;5.82;;;3.70;;
60169;SDS011;46042;49.444;6.862;2023-02-28T13:59:55;6.93;;;3.10;;
60169;SDS011;46042;49.444;6.862;2023-02-28T14:02:41;7.53;;;3.83;;
60169;SDS011;46042;49.444;6.862;2023-02-28T14:05:19;10.80;;;3.45;;
60169;SDS011;46042;49.444;6.862;2023-02-28T14:07:53;6.18;;;3.95;;
60169;SDS011;46042;49.444;6.862;2023-02-28T14:10:24;6.05;;;3.80;;
60169;SDS011;46042;49.444;6.862;2023-02-28T14:13:02;7.97;;;3.97;;
60169;SDS011;46042;49.444;6.862;2023-02-28T14:18:18;5.80;;;4.07;;
60169;SDS011;46042;49.444;6.862;2023-02-28T14:20:57;6.88;;;4.22;;
60169;SDS011;46042;49.444;6.862;2023-02-28T14:26:20;8.18;;;3.72;;
60169;SDS011;46042;49.444;6.862;2023-02-28T14:32:02;10.30;;;3.92;;
60169;SDS011;46042;49.444;6.862;2023-02-28T14:34:50;7.43;;;3.95;;
60169;SDS011;46042;49.444;6.862;2023-02-28T14:37:36;9.13;;;4.28;;
60169;SDS011;46042;49.444;6.862;2023-02-28T14:40:16;7.68;;;3.53;;
60169;SDS011;46042;49.444;6.862;2023-02-28T14:43:00;7.38;;;4.72;;
60169;SDS011;46042;49.444;6.862;2023-02-28T14:45:30;10.95;;;4.00;;
60169;SDS011;46042;49.444;6.862;2023-02-28T14:48:03;6.15;;;3.72;;
60169;SDS011;46042;49.444;6.862;2023-02-28T14:50:36;5.97;;;3.47;;
60169;SDS011;46042;49.444;6.862;2023-02-28T14:53:03;6.05;;;3.70;;
60169;SDS011;46042;49.444;6.862;2023-02-28T14:55:43;8.38;;;4.22;;
60169;SDS011;46042;49.444;6.862;2023-02-28T15:00:53;6.65;;;3.67;;
60169;SDS011;46042;49.444;6.862;2023-02-28T15:05:53;5.53;;;3.67;;
60169;SDS011;46042;49.444;6.862;2023-02-28T15:08:22;5.05;;;3.63;;
60169;SDS011;46042;49.444;6.862;2023-02-28T15:11:00;6.47;;;3.55;;
60169;SDS011;46042;49.444;6.862;2023-02-28T15:13:39;6.65;;;4.32;;
60169;SDS011;46042;49.444;6.862;2023-02-28T15:16:10;7.13;;;4.07;;
60169;SDS011;46042;49.444;6.862;2023-02-28T15:21:06;6.93;;;4.03;;
60169;SDS011;46042;49.444;6.862;2023-02-28T15:23:37;5.80;;;3.85;;
60169;SDS011;46042;49.444;6.862;2023-02-28T15:26:05;8.38;;;4.03;;
60169;SDS011;46042;49.444;6.862;2023-02-28T15:28:32;6.93;;;3.97;;
60169;SDS011;46042;49.444;6.862;2023-02-28T15:31:00;10.30;;;4.00;;
60169;SDS011;46042;49.444;6.862;2023-02-28T15:33:30;7.88;;;3.95;;
60169;SDS011;46042;49.444;6.862;2023-02-28T15:36:11;7.53;;;3.90;;
60169;SDS011;46042;49.444;6.862;2023-02-28T15:38:41;7.15;;;3.90;;
60169;SDS011;46042;49.444;6.862;2023-02-28T15:41:22;9.38;;;4.00;;
60169;SDS011;46042;49.444;6.862;2023-02-28T15:46:58;6.47;;;3.20;;
60169;SDS011;46042;49.444;6.862;2023-02-28T15:49:38;7.60;;;4.22;;
60169;SDS011;46042;49.444;6.862;2023-02-28T15:52:13;5.32;;;3.80;;
60169;SDS011;46042;49.444;6.862;2023-02-28T15:54:43;6.57;;;4.22;;
60169;SDS011;46042;49.444;6.862;2023-02-28T15:57:18;6.60;;;3.95;;
60169;SDS011;46042;49.444;6.862;2023-02-28T15:59:51;8.55;;;4.72;;
60169;SDS011;46042;49.444;6.862;2023-02-28T16:02:22;6.63;;;3.97;;
60169;SDS011;46042;49.444;6.862;2023-02-28T16:05:01;9.25;;;4.28;;
60169;SDS011;46042;49.444;6.862;2023-02-28T16:07:28;7.72;;;4.30;;
60169;SDS011;46042;49.444;6.862;2023-02-28T16:09:55;8.60;;;4.30;;
60169;SDS011;46042;49.444;6.862;2023-02-28T16:12:24;8.40;;;4.35;;
60169;SDS011;46042;49.444;6.862;2023-02-28T16:15:23;6.18;;;3.55;;
60169;SDS011;46042;49.444;6.862;2023-02-28T16:17:57;10.63;;;4.38;;
60169;SDS011;46042;49.444;6.862;2023-02-28T16:20:25;6.50;;;4.10;;
60169;SDS011;46042;49.444;6.862;2023-02-28T16:22:54;10.07;;;4.72;;
60169;SDS011;46042;49.444;6.862;2023-02-28T16:25:23;9.70;;;4.97;;
60169;SDS011;46042;49.444;6.862;2023-02-28T16:28:00;9.00;;;4.10;;
60169;SDS011;46042;49.444;6.862;2023-02-28T16:30:28;5.57;;;3.47;;
60169;SDS011;46042;49.444;6.862;2023-02-28T16:32:58;5.30;;;3.30;;
60169;SDS011;46042;49.444;6.862;2023-02-28T16:35:25;6.72;;;4.07;;
60169;SDS011;46042;49.444;6.862;2023-02-28T16:37:52;7.63;;;3.65;;
60169;SDS011;46042;49.444;6.862;2023-02-28T16:40:21;6.22;;;3.50;;
60169;SDS011;46042;49.444;6.862;2023-02-28T16:42:52;7.30;;;3.42;;
60169;SDS011;46042;49.444;6.862;2023-02-28T16:45:22;5.72;;;3.17;;
60169;SDS011;46042;49.444;6.862;2023-02-28T16:47:50;5.78;;;3.67;;
60169;SDS011;46042;49.444;6.862;2023-02-28T16:50:18;5.20;;;3.20;;
60169;SDS011;46042;49.444;6.862;2023-02-28T16:52:49;6.10;;;3.42;;
60169;SDS011;46042;49.444;6.862;2023-02-28T16:55:18;6.68;;;3.83;;
60169;SDS011;46042;49.444;6.862;2023-02-28T16:57:47;7.75;;;4.20;;
60169;SDS011;46042;49.444;6.862;2023-02-28T17:00:19;6.32;;;3.67;;
60169;SDS011;46042;49.444;6.862;2023-02-28T17:02:46;5.78;;;3.70;;
60169;SDS011;46042;49.444;6.862;2023-02-28T17:05:13;8.30;;;3.45;;
60169;SDS011;46042;49.444;6.862;2023-02-28T17:07:41;7.83;;;4.00;;
60169;SDS011;46042;49.444;6.862;2023-02-28T17:10:13;5.97;;;4.13;;
60169;SDS011;46042;49.444;6.862;2023-02-28T17:12:44;7.55;;;3.83;;
60169;SDS011;46042;49.444;6.862;2023-02-28T17:15:11;7.72;;;3.55;;
60169;SDS011;46042;49.444;6.862;2023-02-28T17:17:40;6.73;;;4.03;;
60169;SDS011;46042;49.444;6.862;2023-02-28T17:20:12;7.00;;;3.40;;
60169;SDS011;46042;49.444;6.862;2023-02-28T17:22:40;6.90;;;3.97;;
60169;SDS011;46042;49.444;6.862;2023-02-28T17:25:08;7.27;;;4.30;;
60169;SDS011;46042;49.444;6.862;2023-02-28T17:27:36;5.07;;;3.38;;
60169;SDS011;46042;49.444;6.862;2023-02-28T17:30:09;7.27;;;3.80;;
60169;SDS011;46042;49.444;6.862;2023-02-28T17:32:49;7.00;;;3.90;;
60169;SDS011;46042;49.444;6.862;2023-02-28T17:35:15;6.33;;;3.87;;
60169;SDS011;46042;49.444;6.862;2023-02-28T17:37:42;6.83;;;4.00;;
60169;SDS011;46042;49.444;6.862;2023-02-28T17:40:12;11.43;;;3.80;;